createdAt,value
2022-08-01T00:00:09.070Z,4.10
2022-08-01T00:02:38.805Z,4.05
2022-08-01T00:05:07.287Z,4.45
2022-08-01T00:07:35.283Z,4.63
2022-08-01T00:10:06.910Z,4.25
2022-08-01T00:12:33.669Z,4.60
2022-08-01T00:15:00.498Z,4.38
2022-08-01T00:17:27.244Z,4.93
2022-08-01T00:19:53.975Z,4.68
2022-08-01T00:22:20.744Z,4.75
2022-08-01T00:24:47.553Z,4.85
2022-08-01T00:27:14.360Z,5.10
2022-08-01T00:30:12.477Z,5.40
2022-08-01T00:32:27.909Z,5.30
2022-08-01T00:34:55.997Z,5.88
2022-08-01T00:37:22.764Z,5.25
2022-08-01T00:39:49.531Z,5.95
2022-08-01T00:42:16.276Z,5.53
2022-08-01T00:44:43.243Z,5.60
2022-08-01T00:47:10.233Z,5.38
2022-08-01T00:49:37.073Z,5.35
2022-08-01T00:52:06.330Z,5.85
2022-08-01T00:54:33.726Z,5.00
2022-08-01T00:57:00.766Z,5.30
2022-08-01T00:59:28.257Z,5.32
2022-08-01T01:01:55.966Z,4.80
2022-08-01T01:04:28.563Z,5.53
2022-08-01T01:07:30.308Z,5.13
2022-08-01T01:10:01.210Z,5.13
2022-08-01T01:12:55.629Z,5.45
2022-08-01T01:15:37.257Z,5.47
2022-08-01T01:18:08.237Z,5.72
2022-08-01T01:20:42.214Z,5.57
2022-08-01T01:23:35.923Z,4.97
2022-08-01T01:26:27.014Z,5.28
2022-08-01T01:29:01.693Z,5.20
2022-08-01T01:31:29.707Z,5.07
2022-08-01T01:33:58.888Z,5.40
2022-08-01T01:36:28.268Z,4.68
2022-08-01T01:38:56.628Z,5.38
2022-08-01T01:41:24.157Z,4.88
2022-08-01T01:43:52.692Z,5.30
2022-08-01T01:46:24.368Z,5.30
2022-08-01T01:48:52.741Z,5.03
2022-08-01T01:51:23.211Z,4.63
2022-08-01T01:53:52.623Z,4.53
2022-08-01T01:56:20.953Z,4.18
2022-08-01T01:58:53.394Z,4.15
2022-08-01T02:01:58.559Z,4.50
2022-08-01T02:04:10.530Z,3.85
2022-08-01T02:06:39.131Z,4.00
2022-08-01T02:09:07.614Z,4.32
2022-08-01T02:11:37.839Z,4.03
2022-08-01T02:14:24.866Z,4.20
2022-08-01T02:16:51.812Z,3.60
2022-08-01T02:19:19.610Z,3.90
2022-08-01T02:21:55.477Z,4.20
2022-08-01T02:24:32.950Z,3.67
2022-08-01T02:27:04.091Z,3.72
2022-08-01T02:29:44.564Z,3.50
2022-08-01T02:32:25.302Z,3.67
2022-08-01T02:34:53.237Z,3.55
2022-08-01T02:37:22.008Z,3.40
2022-08-01T02:39:53.462Z,3.22
2022-08-01T02:42:21.251Z,3.35
2022-08-01T02:44:49.254Z,3.05
2022-08-01T02:47:20.484Z,3.40
2022-08-01T02:49:53.253Z,3.17
2022-08-01T02:52:23.967Z,2.97
2022-08-01T02:54:54.370Z,3.40
2022-08-01T02:57:22.657Z,2.83
2022-08-01T02:59:54.809Z,2.42
2022-08-01T03:02:24.909Z,2.83
2022-08-01T03:04:57.122Z,2.70
2022-08-01T03:07:24.987Z,2.30
2022-08-01T03:10:02.852Z,2.30
2022-08-01T03:12:32.235Z,2.17
2022-08-01T03:15:00.783Z,2.50
2022-08-01T03:17:29.883Z,2.63
2022-08-01T03:19:59.724Z,2.33
2022-08-01T03:22:28.977Z,2.42
2022-08-01T03:24:58.623Z,2.20
2022-08-01T03:27:26.159Z,2.15
2022-08-01T03:29:56.247Z,2.20
2022-08-01T03:32:23.947Z,2.17
2022-08-01T03:34:50.881Z,1.90
2022-08-01T03:37:30.633Z,2.17
2022-08-01T03:40:12.040Z,2.28
2022-08-01T03:42:47.962Z,2.13
2022-08-01T03:45:25.961Z,2.30
2022-08-01T03:48:06.187Z,2.20
2022-08-01T03:50:35.414Z,1.90
2022-08-01T03:53:05.078Z,2.10
2022-08-01T03:55:32.775Z,2.35
2022-08-01T03:58:00.553Z,2.20
2022-08-01T04:00:28.903Z,2.30
2022-08-01T04:02:56.260Z,2.60
2022-08-01T04:05:23.336Z,2.10
2022-08-01T04:07:57.359Z,2.70
2022-08-01T04:10:24.853Z,2.35
2022-08-01T04:12:52.170Z,2.58
2022-08-01T04:15:19.188Z,2.53
2022-08-01T04:17:45.901Z,2.60
2022-08-01T04:20:12.877Z,2.60
2022-08-01T04:22:40.472Z,2.75
2022-08-01T04:25:22.630Z,2.70
2022-08-01T04:27:52.460Z,3.05
2022-08-01T04:30:25.436Z,3.15
2022-08-01T04:32:55.504Z,3.25
2022-08-01T04:36:02.162Z,3.38
2022-08-01T04:38:11.827Z,3.10
2022-08-01T04:40:41.160Z,3.00
2022-08-01T04:43:08.537Z,3.28
2022-08-01T04:45:37.344Z,3.38
2022-08-01T04:48:07.561Z,3.63
2022-08-01T04:50:36.260Z,3.40
2022-08-01T04:53:04.067Z,3.72
2022-08-01T04:55:32.276Z,3.53
2022-08-01T04:57:59.054Z,3.30
2022-08-01T05:00:27.362Z,3.72
2022-08-01T05:02:54.101Z,3.80
2022-08-01T05:05:21.915Z,3.50
2022-08-01T05:07:48.711Z,3.50
2022-08-01T05:10:15.472Z,3.45
2022-08-01T05:12:42.204Z,3.70
2022-08-01T05:15:14.804Z,3.63
2022-08-01T05:17:45.438Z,3.35
2022-08-01T05:20:13.158Z,3.60
2022-08-01T05:22:40.134Z,3.67
2022-08-01T05:25:07.301Z,3.10
2022-08-01T05:27:39.150Z,3.22
2022-08-01T05:30:08.008Z,3.22
2022-08-01T05:32:34.846Z,3.10
2022-08-01T05:35:01.667Z,3.10
2022-08-01T05:37:28.468Z,3.13
2022-08-01T05:39:55.216Z,3.15
2022-08-01T05:42:22.032Z,2.92
2022-08-01T05:44:48.837Z,2.88
2022-08-01T05:47:15.601Z,2.88
2022-08-01T05:49:42.377Z,2.90
2022-08-01T05:52:09.572Z,2.80
2022-08-01T05:54:36.530Z,2.80
2022-08-01T05:57:03.627Z,2.90
2022-08-01T05:59:30.894Z,2.50
2022-08-01T06:01:58.114Z,2.70
2022-08-01T06:04:24.931Z,2.17
2022-08-01T06:06:51.698Z,2.05
2022-08-01T06:09:18.462Z,1.50
2022-08-01T06:11:45.200Z,0.77
2022-08-01T06:14:11.970Z,0.77
2022-08-01T06:16:38.695Z,0.70
2022-08-01T06:19:05.488Z,0.73
2022-08-01T06:21:32.214Z,0.80
2022-08-01T06:23:58.933Z,0.80
2022-08-01T06:26:25.656Z,0.80
2022-08-01T06:28:52.432Z,0.85
2022-08-01T06:31:19.182Z,0.70
2022-08-01T06:33:45.932Z,0.90
2022-08-01T06:36:12.692Z,0.90
2022-08-01T06:38:39.618Z,0.80
2022-08-01T06:41:06.342Z,0.90
2022-08-01T06:43:33.050Z,0.80
2022-08-01T06:45:59.759Z,0.80
2022-08-01T06:48:27.421Z,0.80
2022-08-01T06:51:08.790Z,0.70
2022-08-01T06:53:37.441Z,0.93
2022-08-01T06:56:05.113Z,0.75
2022-08-01T06:58:32.096Z,0.80
2022-08-01T07:00:59.543Z,0.80
2022-08-01T07:03:27.861Z,0.90
2022-08-01T07:06:13.415Z,0.70
2022-08-01T07:08:41.837Z,0.90
2022-08-01T07:11:08.832Z,0.68
2022-08-01T07:13:36.654Z,0.95
2022-08-01T07:16:10.515Z,0.88
2022-08-01T07:18:37.332Z,0.52
2022-08-01T07:21:04.966Z,0.60
2022-08-01T07:23:34.044Z,0.77
2022-08-01T07:26:04.644Z,0.80
2022-08-01T07:28:31.858Z,0.70
2022-08-01T07:30:58.606Z,0.70
2022-08-01T07:33:25.351Z,0.60
2022-08-01T07:35:52.129Z,0.80
2022-08-01T07:38:18.844Z,0.80
2022-08-01T07:40:45.664Z,0.85
2022-08-01T07:43:12.444Z,0.77
2022-08-01T07:45:39.188Z,0.63
2022-08-01T07:48:13.222Z,0.82
2022-08-01T07:50:40.013Z,1.00
2022-08-01T07:53:06.781Z,0.77
2022-08-01T07:55:33.672Z,0.80
2022-08-01T07:58:00.395Z,0.90
2022-08-01T08:00:28.473Z,0.93
2022-08-01T08:02:55.579Z,0.80
2022-08-01T08:05:58.297Z,0.68
2022-08-01T08:10:36.789Z,0.93
2022-08-01T08:13:04.258Z,1.35
2022-08-01T08:15:31.020Z,0.75
2022-08-01T08:18:00.430Z,1.25
2022-08-01T08:20:28.795Z,0.90
2022-08-01T08:22:56.070Z,1.10
2022-08-01T08:25:22.986Z,1.20
2022-08-01T08:27:54.139Z,1.13
2022-08-01T08:30:21.882Z,1.48
2022-08-01T08:32:48.934Z,1.10
2022-08-01T08:35:20.118Z,1.30
2022-08-01T08:38:02.512Z,1.50
2022-08-01T08:40:32.159Z,1.27
2022-08-01T08:43:01.530Z,1.63
2022-08-01T08:45:30.914Z,1.20
2022-08-01T08:48:15.656Z,1.00
2022-08-01T08:50:44.338Z,1.35
2022-08-01T08:53:18.367Z,1.15
2022-08-01T08:55:55.465Z,1.77
2022-08-01T08:58:30.484Z,1.10
2022-08-01T09:00:58.878Z,1.13
2022-08-01T09:03:25.972Z,0.82
2022-08-01T09:05:52.889Z,0.95
2022-08-01T09:08:19.654Z,0.95
2022-08-01T09:10:46.424Z,0.77
2022-08-01T09:13:15.622Z,0.85
2022-08-01T09:15:46.600Z,1.17
2022-08-01T09:18:34.728Z,0.75
2022-08-01T09:21:17.942Z,0.80
2022-08-01T09:23:53.825Z,0.80
2022-08-01T09:26:31.508Z,0.80
2022-08-01T09:28:59.257Z,0.90
2022-08-01T09:31:38.572Z,0.60
2022-08-01T09:34:06.379Z,0.80
2022-08-01T09:36:57.861Z,1.00
2022-08-01T09:39:27.830Z,0.80
2022-08-01T09:41:56.653Z,0.90
2022-08-01T09:44:54.963Z,1.52
2022-08-01T09:47:23.733Z,0.90
2022-08-01T09:49:59.547Z,1.10
2022-08-01T09:52:28.916Z,0.90
2022-08-01T09:54:56.258Z,1.10
2022-08-01T09:57:23.442Z,1.08
2022-08-01T10:00:01.108Z,1.10
2022-08-01T10:02:28.498Z,0.90
2022-08-01T10:05:03.218Z,0.82
2022-08-01T10:07:43.425Z,0.93
2022-08-01T10:10:14.578Z,0.70
2022-08-01T10:12:45.497Z,0.80
2022-08-01T10:15:16.318Z,0.90
2022-08-01T10:17:57.204Z,1.13
2022-08-01T10:20:31.363Z,1.00
2022-08-01T10:23:05.630Z,0.80
2022-08-01T10:25:43.215Z,0.82
2022-08-01T10:28:21.165Z,1.75
2022-08-01T10:30:49.617Z,1.10
2022-08-01T10:33:49.878Z,0.80
2022-08-01T10:36:08.454Z,0.77
2022-08-01T10:38:36.321Z,0.80
2022-08-01T10:41:06.418Z,0.85
2022-08-01T10:43:35.564Z,0.90
2022-08-01T10:46:06.524Z,0.82
2022-08-01T10:48:56.244Z,0.85
2022-08-01T10:51:51.200Z,1.15
2022-08-01T10:54:13.265Z,0.88
2022-08-01T10:56:51.418Z,0.80
2022-08-01T10:59:50.741Z,0.80
2022-08-01T11:02:57.327Z,0.93
2022-08-01T11:05:25.575Z,0.50
2022-08-01T11:07:56.203Z,0.70
2022-08-01T11:10:38.314Z,1.42
2022-08-01T11:13:12.158Z,0.90
2022-08-01T11:15:50.572Z,1.05
2022-08-01T11:18:31.361Z,1.45
2022-08-01T11:21:56.816Z,0.65
2022-08-01T11:23:54.386Z,0.70
2022-08-01T11:26:29.519Z,0.70
2022-08-01T11:29:21.119Z,0.50
2022-08-01T11:31:49.817Z,0.55
2022-08-01T11:34:16.711Z,0.82
2022-08-01T11:37:09.874Z,1.27
2022-08-01T11:39:30.320Z,0.60
2022-08-01T11:42:19.043Z,0.60
2022-08-01T11:44:52.094Z,0.60
2022-08-01T11:47:21.139Z,0.88
2022-08-01T11:49:55.665Z,1.13
2022-08-01T11:52:27.095Z,0.68
2022-08-01T11:54:57.666Z,0.80
2022-08-01T11:57:34.010Z,0.80
2022-08-01T12:00:10.774Z,1.05
2022-08-01T12:02:43.158Z,1.20
2022-08-01T12:05:19.156Z,1.00
2022-08-01T12:07:50.146Z,0.60
2022-08-01T12:10:19.463Z,0.77
2022-08-01T12:12:55.087Z,0.75
2022-08-01T12:15:24.969Z,0.80
2022-08-01T12:18:00.912Z,0.63
2022-08-01T12:20:32.016Z,0.80
2022-08-01T12:23:08.322Z,0.60
2022-08-01T12:28:04.129Z,0.60
2022-08-01T12:30:37.334Z,0.60
2022-08-01T12:33:06.640Z,0.70
2022-08-01T12:35:34.237Z,0.70
2022-08-01T12:38:04.409Z,0.40
2022-08-01T12:40:33.428Z,0.50
2022-08-01T12:43:06.063Z,0.57
2022-08-01T12:45:54.370Z,0.73
2022-08-01T12:48:23.363Z,0.70
2022-08-01T12:50:53.188Z,0.80
2022-08-01T12:53:21.536Z,0.60
2022-08-01T12:55:58.183Z,0.40
2022-08-01T12:58:32.775Z,0.80
2022-08-01T13:01:11.231Z,0.50
2022-08-01T13:03:38.836Z,0.50
2022-08-01T13:06:17.497Z,0.50
2022-08-01T13:08:45.899Z,0.50
2022-08-01T13:11:15.854Z,0.75
2022-08-01T13:13:44.446Z,0.40
2022-08-01T13:16:17.507Z,0.60
2022-08-01T13:18:59.867Z,1.05
2022-08-01T13:21:34.631Z,0.50
2022-08-01T13:24:25.434Z,0.50
2022-08-01T13:26:54.217Z,0.50
2022-08-01T13:29:29.386Z,0.75
2022-08-01T13:31:56.290Z,0.40
2022-08-01T13:34:33.731Z,0.55
2022-08-01T13:37:02.525Z,0.30
2022-08-01T13:39:48.301Z,0.70
2022-08-01T13:42:19.180Z,0.60
2022-08-01T13:44:48.318Z,0.63
2022-08-01T13:47:16.164Z,0.55
2022-08-01T13:49:44.442Z,0.28
2022-08-01T13:52:11.465Z,0.45
2022-08-01T13:54:38.376Z,0.40
2022-08-01T13:57:05.425Z,0.40
2022-08-01T13:59:32.220Z,0.30
2022-08-01T14:01:59.118Z,0.75
2022-08-01T14:04:26.025Z,0.63
2022-08-01T14:06:52.917Z,0.47
2022-08-01T14:09:24.155Z,0.30
2022-08-01T14:11:51.656Z,0.73
2022-08-01T14:14:18.449Z,0.40
2022-08-01T14:16:47.979Z,0.40
2022-08-01T14:19:17.498Z,0.50
2022-08-01T14:21:46.079Z,0.45
2022-08-01T14:24:12.844Z,0.50
2022-08-01T14:26:39.787Z,0.63
2022-08-01T14:29:06.620Z,0.70
2022-08-01T14:31:34.483Z,0.50
2022-08-01T14:34:01.835Z,0.30
2022-08-01T14:36:31.169Z,0.55
2022-08-01T14:39:00.402Z,0.47
2022-08-01T14:41:28.406Z,0.40
2022-08-01T14:43:57.539Z,0.30
2022-08-01T14:46:24.329Z,0.50
2022-08-01T14:48:51.426Z,0.57
2022-08-01T14:51:18.347Z,0.77
2022-08-01T14:53:46.920Z,0.77
2022-08-01T14:56:18.323Z,0.40
2022-08-01T14:58:45.302Z,0.85
2022-08-01T15:01:12.199Z,0.52
2022-08-01T15:03:39.016Z,0.50
2022-08-01T15:06:07.266Z,0.50
2022-08-01T15:08:34.072Z,0.60
2022-08-01T15:11:02.082Z,0.40
2022-08-01T15:13:29.005Z,0.73
2022-08-01T15:15:59.949Z,0.50
2022-08-01T15:18:30.773Z,0.32
2022-08-01T15:21:01.173Z,0.25
2022-08-01T15:23:27.961Z,0.75
2022-08-01T15:25:54.756Z,0.68
2022-08-01T15:28:21.480Z,0.50
2022-08-01T15:30:48.205Z,0.82
2022-08-01T15:33:14.935Z,0.40
2022-08-01T15:35:43.498Z,1.08
2022-08-01T15:38:10.334Z,0.47
2022-08-01T15:40:37.080Z,0.52
2022-08-01T15:43:03.890Z,0.30
2022-08-01T15:45:46.821Z,0.45
2022-08-01T15:48:14.923Z,0.30
2022-08-01T15:50:41.767Z,0.32
2022-08-01T15:53:08.610Z,0.52
2022-08-01T15:55:39.037Z,0.60
2022-08-01T15:58:07.594Z,0.40
2022-08-01T16:00:39.194Z,0.60
2022-08-01T16:03:13.518Z,0.60
2022-08-01T16:05:45.915Z,0.40
2022-08-01T16:08:13.466Z,0.52
2022-08-01T16:10:40.262Z,0.80
2022-08-01T16:13:07.967Z,0.45
2022-08-01T16:15:37.748Z,0.50
2022-08-01T16:18:09.839Z,0.43
2022-08-01T16:20:40.397Z,0.52
2022-08-01T16:23:11.742Z,1.15
2022-08-01T16:25:38.621Z,0.50
2022-08-01T16:28:05.497Z,0.70
2022-08-01T16:30:32.589Z,0.60
2022-08-01T16:33:02.051Z,0.75
2022-08-01T16:35:43.934Z,0.90
2022-08-01T16:38:15.778Z,0.82
2022-08-01T16:40:47.245Z,0.55
2022-08-01T16:43:15.845Z,0.55
2022-08-01T16:45:43.192Z,0.60
2022-08-01T16:48:12.345Z,0.50
2022-08-01T16:50:39.524Z,0.45
2022-08-01T16:53:06.457Z,0.80
2022-08-01T16:55:45.805Z,0.70
2022-08-01T16:58:18.858Z,0.65
2022-08-01T17:00:56.687Z,0.50
2022-08-01T17:03:52.408Z,0.65
2022-08-01T17:06:12.302Z,0.60
2022-08-01T17:08:46.229Z,0.38
2022-08-01T17:11:14.800Z,0.80
2022-08-01T17:13:42.558Z,0.77
2022-08-01T17:16:09.846Z,0.60
2022-08-01T17:18:36.663Z,0.85
2022-08-01T17:21:03.603Z,0.70
2022-08-01T17:23:31.801Z,0.57
2022-08-01T17:25:59.295Z,0.73
2022-08-01T17:28:26.313Z,0.40
2022-08-01T17:30:53.304Z,0.70
2022-08-01T17:33:20.339Z,1.25
2022-08-01T17:35:47.183Z,0.80
2022-08-01T17:38:14.064Z,0.70
2022-08-01T17:40:41.361Z,0.90
2022-08-01T17:43:08.752Z,0.75
2022-08-01T17:45:39.413Z,0.70
2022-08-01T17:48:18.344Z,0.52
2022-08-01T17:50:46.386Z,0.88
2022-08-01T17:53:14.722Z,0.73
2022-08-01T17:55:55.876Z,1.05
2022-08-01T17:58:50.199Z,1.33
2022-08-01T18:01:16.883Z,0.77
2022-08-01T18:03:44.364Z,0.60
2022-08-01T18:06:13.779Z,0.93
2022-08-01T18:08:41.966Z,0.65
2022-08-01T18:11:09.641Z,0.80
2022-08-01T18:13:40.466Z,0.70
2022-08-01T18:16:10.992Z,0.82
2022-08-01T18:18:39.088Z,1.30
2022-08-01T18:21:06.889Z,0.60
2022-08-01T18:23:35.043Z,0.80
2022-08-01T18:26:02.736Z,0.70
2022-08-01T18:28:34.185Z,0.80
2022-08-01T18:31:03.749Z,0.80
2022-08-01T18:33:30.683Z,1.08
2022-08-01T18:36:01.720Z,0.82
2022-08-01T18:38:32.222Z,0.88
2022-08-01T18:41:00.595Z,0.70
2022-08-01T18:43:27.714Z,0.68
2022-08-01T18:45:57.144Z,1.17
2022-08-01T18:51:11.676Z,0.60
2022-08-01T18:53:39.571Z,0.90
2022-08-01T18:56:20.035Z,0.73
2022-08-01T18:59:11.110Z,0.70
2022-08-01T19:01:58.618Z,1.15
2022-08-01T19:04:28.282Z,0.80
2022-08-01T19:06:55.472Z,0.70
2022-08-01T19:09:23.401Z,0.60
2022-08-01T19:12:00.911Z,0.80
2022-08-01T19:14:27.856Z,0.70
2022-08-01T19:17:04.131Z,0.70
2022-08-01T19:19:31.613Z,0.75
2022-08-01T19:22:09.461Z,0.77
2022-08-01T19:24:36.621Z,0.60
2022-08-01T19:27:09.026Z,0.82
2022-08-01T19:29:39.290Z,0.88
2022-08-01T19:32:10.199Z,0.88
2022-08-01T19:34:47.463Z,0.77
2022-08-01T19:37:25.391Z,0.65
2022-08-01T19:39:54.635Z,0.82
2022-08-01T19:42:23.858Z,0.80
2022-08-01T19:44:51.991Z,0.82
2022-08-01T19:47:19.257Z,1.00
2022-08-01T19:49:46.613Z,1.23
2022-08-01T19:52:17.174Z,0.85
2022-08-01T19:54:45.484Z,0.82
2022-08-01T19:57:14.708Z,0.60
2022-08-01T19:59:42.609Z,1.02
2022-08-01T20:02:09.408Z,0.60
2022-08-01T20:04:36.312Z,0.80
2022-08-01T20:07:03.472Z,0.60
2022-08-01T20:09:31.586Z,0.80
2022-08-01T20:11:58.398Z,0.60
2022-08-01T20:14:26.534Z,0.88
2022-08-01T20:16:54.918Z,0.60
2022-08-01T20:19:24.458Z,0.63
2022-08-01T20:22:02.603Z,0.70
2022-08-01T20:24:41.219Z,0.52
2022-08-01T20:27:10.384Z,0.57
2022-08-01T20:29:38.048Z,1.10
2022-08-01T20:32:05.766Z,1.05
2022-08-01T20:34:38.976Z,0.68
2022-08-01T20:37:12.779Z,1.52
2022-08-01T20:39:43.323Z,0.80
2022-08-01T20:42:11.166Z,0.63
2022-08-01T20:44:38.902Z,0.73
2022-08-01T20:47:05.987Z,0.90
2022-08-01T20:49:35.829Z,0.80
2022-08-01T20:52:11.978Z,1.17
2022-08-01T20:54:40.820Z,0.70
2022-08-01T20:57:15.796Z,0.80
2022-08-01T20:59:58.592Z,0.73
2022-08-01T21:02:31.163Z,0.75
2022-08-01T21:05:04.754Z,0.90
2022-08-01T21:07:51.821Z,1.83
2022-08-01T21:10:21.142Z,1.60
2022-08-01T21:13:06.366Z,0.70
2022-08-01T21:16:22.326Z,0.80
2022-08-01T21:18:38.538Z,0.90
2022-08-01T21:21:10.375Z,1.45
2022-08-01T21:23:47.589Z,1.02
2022-08-01T21:26:14.678Z,1.00
2022-08-01T21:28:54.537Z,1.17
2022-08-01T21:31:23.640Z,0.80
2022-08-01T21:33:57.077Z,0.80
2022-08-01T21:36:30.899Z,1.10
2022-08-01T21:38:58.841Z,1.08
2022-08-01T21:42:05.260Z,0.90
2022-08-01T21:44:16.068Z,1.05
2022-08-01T21:46:43.298Z,0.90
2022-08-01T21:49:10.618Z,1.23
2022-08-01T21:51:45.606Z,1.15
2022-08-01T21:54:34.096Z,0.70
2022-08-01T21:57:25.639Z,0.90
2022-08-01T22:00:24.876Z,0.90
2022-08-01T22:03:04.155Z,0.88
2022-08-01T22:05:50.691Z,0.82
2022-08-01T22:08:33.842Z,0.70
2022-08-01T22:11:05.025Z,0.98
2022-08-01T22:13:34.377Z,0.82
2022-08-01T22:16:04.278Z,2.05
2022-08-01T22:18:33.424Z,0.82
2022-08-01T22:21:02.470Z,0.90
2022-08-01T22:23:29.695Z,0.93
2022-08-01T22:25:56.492Z,0.90
2022-08-01T22:28:23.853Z,0.95
2022-08-01T22:30:51.958Z,0.90
2022-08-01T22:33:19.595Z,0.93
2022-08-01T22:35:52.549Z,0.73
2022-08-01T22:38:20.987Z,1.00
2022-08-01T22:40:53.743Z,0.93
2022-08-01T22:43:29.337Z,1.10
2022-08-01T22:46:08.355Z,1.02
2022-08-01T22:48:49.644Z,0.85
2022-08-01T22:51:27.529Z,0.90
2022-08-01T22:54:06.937Z,0.75
2022-08-01T22:56:39.268Z,0.77
2022-08-01T22:59:14.330Z,0.90
2022-08-01T23:01:48.387Z,0.90
2022-08-01T23:04:39.328Z,1.00
2022-08-01T23:07:06.918Z,1.30
2022-08-01T23:09:48.080Z,1.05
2022-08-01T23:12:23.377Z,0.88
2022-08-01T23:14:53.675Z,0.70
2022-08-01T23:17:26.852Z,1.08
2022-08-01T23:19:59.648Z,0.80
2022-08-01T23:22:30.073Z,1.05
2022-08-01T23:25:05.036Z,0.98
2022-08-01T23:28:03.747Z,0.80
2022-08-01T23:30:33.167Z,1.02
2022-08-01T23:33:00.186Z,0.80
2022-08-01T23:35:28.775Z,0.90
2022-08-01T23:37:58.428Z,1.00
2022-08-01T23:40:33.605Z,1.00
2022-08-01T23:43:01.820Z,1.20
2022-08-01T23:45:28.781Z,1.10
2022-08-01T23:48:15.595Z,1.00
2022-08-01T23:50:42.403Z,0.90
2022-08-01T23:53:09.146Z,1.48
2022-08-01T23:55:37.598Z,1.05
2022-08-01T23:58:06.536Z,0.88
